Time;durP1;ratioP1;P1;durP2;ratioP2;P2;SDS_P1;SDS_P2;PMS_P1;PMS_P2;Temp;Humidity;BMP_temperature;BMP_pressure;BME280_temperature;BME280_humidity;BME280_pressure;Samples;Min_cycle;Max_cycle;Signal;HPM_P1;HPM_P2
2022/03/11 00:01:07;;;;;;;3.55;2.50;;;17.70;46.10;;;;;;5052458;28;20172;-65
2022/03/11 00:03:33;;;;;;;3.30;3.00;;;17.70;46.10;;;;;;5053260;28;20215;-65
2022/03/11 00:05:58;;;;;;;3.25;2.80;;;17.70;46.20;;;;;;5053273;28;20228;-66
2022/03/11 00:08:27;;;;;;;5.53;3.08;;;17.70;46.10;;;;;;5051948;28;20179;-66
2022/03/11 00:10:52;;;;;;;2.97;2.67;;;17.60;46.10;;;;;;5052941;28;20185;-67
2022/03/11 00:13:18;;;;;;;2.75;2.55;;;17.60;46.20;;;;;;5052829;28;20171;-67
2022/03/11 00:15:43;;;;;;;2.85;2.50;;;17.60;46.20;;;;;;5052109;28;20185;-67
2022/03/11 00:18:09;;;;;;;3.25;2.60;;;17.60;46.10;;;;;;5052567;28;20197;-68
2022/03/11 00:20:34;;;;;;;4.53;2.72;;;17.60;46.20;;;;;;5052249;28;20186;-67
2022/03/11 00:23:00;;;;;;;2.70;2.50;;;17.60;46.20;;;;;;5052894;28;20167;-67
2022/03/11 00:25:26;;;;;;;3.35;3.03;;;17.60;46.20;;;;;;5052290;28;20583;-67
2022/03/11 00:27:51;;;;;;;3.72;2.95;;;17.50;46.20;;;;;;5052087;28;20199;-67
2022/03/11 00:30:17;;;;;;;3.30;2.53;;;17.60;46.20;;;;;;5051994;28;20657;-67
2022/03/11 00:32:42;;;;;;;2.88;2.55;;;17.60;46.20;;;;;;5052628;28;20179;-66
2022/03/11 00:35:09;;;;;;;3.60;2.70;;;17.60;46.30;;;;;;5051642;28;20175;-66
2022/03/11 00:37:38;;;;;;;2.55;2.35;;;17.50;46.20;;;;;;5051232;28;20179;-66
2022/03/11 00:40:04;;;;;;;2.67;2.47;;;17.50;46.30;;;;;;5052442;28;20183;-66
2022/03/11 00:42:30;;;;;;;2.90;2.60;;;17.50;46.30;;;;;;5051471;28;20170;-67
2022/03/11 00:44:55;;;;;;;3.15;2.75;;;17.50;46.30;;;;;;5052464;28;20256;-67
2022/03/11 00:47:21;;;;;;;2.83;2.53;;;17.50;46.30;;;;;;5051928;28;20175;-66
2022/03/11 00:49:46;;;;;;;2.88;2.67;;;17.50;46.30;;;;;;5051438;28;20544;-67
2022/03/11 00:52:12;;;;;;;3.10;2.80;;;17.50;46.30;;;;;;5051953;28;20163;-68
2022/03/11 00:54:37;;;;;;;3.78;3.05;;;17.50;46.40;;;;;;5051973;28;20218;-67
2022/03/11 00:57:03;;;;;;;3.17;2.85;;;17.40;46.40;;;;;;5051683;28;20254;-67
2022/03/11 00:59:28;;;;;;;2.70;2.50;;;17.40;46.30;;;;;;5051962;28;20288;-68
2022/03/11 01:01:54;;;;;;;2.95;2.72;;;17.40;46.30;;;;;;5052156;28;20167;-68
2022/03/11 01:04:19;;;;;;;3.05;2.75;;;17.40;46.30;;;;;;5051053;28;20249;-68
2022/03/11 01:06:45;;;;;;;3.00;2.65;;;17.40;46.20;;;;;;5052168;28;20175;-66
2022/03/11 01:09:10;;;;;;;3.13;2.67;;;17.40;46.30;;;;;;5051533;28;20175;-66
2022/03/11 01:11:36;;;;;;;3.03;2.72;;;17.40;46.40;;;;;;5051120;28;20175;-66
2022/03/11 01:14:02;;;;;;;3.28;2.80;;;17.40;46.30;;;;;;5052034;28;20258;-67
2022/03/11 01:16:28;;;;;;;2.92;2.67;;;17.40;46.30;;;;;;5051776;28;20365;-67
2022/03/11 01:18:53;;;;;;;3.22;2.92;;;17.40;46.30;;;;;;5051070;28;20179;-67
2022/03/11 01:21:19;;;;;;;4.78;2.85;;;17.40;46.40;;;;;;5051480;28;20583;-66
2022/03/11 01:23:44;;;;;;;2.63;2.42;;;17.40;46.40;;;;;;5051594;28;20221;-66
2022/03/11 01:26:12;;;;;;;2.97;2.67;;;17.40;46.40;;;;;;5050969;28;20175;-67
2022/03/11 01:28:41;;;;;;;2.85;2.65;;;17.30;46.40;;;;;;5051807;28;20207;-67
2022/03/11 01:31:07;;;;;;;5.05;2.83;;;17.30;46.40;;;;;;5050524;28;20529;-67
2022/03/11 01:33:33;;;;;;;2.97;2.67;;;17.30;46.40;;;;;;5051698;28;20273;-66
2022/03/11 01:35:58;;;;;;;3.58;2.80;;;17.30;46.40;;;;;;5051740;28;20179;-66
2022/03/11 01:38:24;;;;;;;2.97;2.65;;;17.30;46.40;;;;;;5050610;28;20274;-66
2022/03/11 01:40:49;;;;;;;2.60;2.40;;;17.30;46.40;;;;;;5050897;28;20167;-67
2022/03/11 01:43:15;;;;;;;3.25;2.80;;;17.30;46.40;;;;;;5051108;28;20174;-66
2022/03/11 01:45:41;;;;;;;3.70;2.55;;;17.30;46.40;;;;;;5051055;28;20631;-66
2022/03/11 01:48:07;;;;;;;3.25;2.92;;;17.20;46.30;;;;;;5051379;28;20167;-67
2022/03/11 01:50:33;;;;;;;3.28;2.97;;;17.20;46.40;;;;;;5051665;28;20279;-67
2022/03/11 01:52:58;;;;;;;2.67;2.47;;;17.30;46.40;;;;;;5049565;28;20624;-66
2022/03/11 01:55:24;;;;;;;3.10;2.90;;;17.20;46.30;;;;;;5049244;28;20236;-66
2022/03/11 01:57:49;;;;;;;2.70;2.50;;;17.20;46.40;;;;;;5051712;28;20183;-66
2022/03/11 02:00:15;;;;;;;3.00;2.80;;;17.20;46.40;;;;;;5050452;28;20167;-66
2022/03/11 02:02:40;;;;;;;2.88;2.60;;;17.20;46.40;;;;;;5051549;28;20172;-65
2022/03/11 02:05:06;;;;;;;3.17;2.95;;;17.20;46.40;;;;;;5051217;28;20211;-66
2022/03/11 02:07:32;;;;;;;2.65;2.45;;;17.20;46.40;;;;;;5050537;28;20171;-66
2022/03/11 02:09:58;;;;;;;3.03;2.60;;;17.20;46.50;;;;;;5050100;28;20233;-67
2022/03/11 02:12:30;;;;;;;3.08;2.78;;;17.20;46.50;;;;;;5051012;28;20178;-68
2022/03/11 02:14:56;;;;;;;3.03;2.78;;;17.10;46.50;;;;;;5050581;28;20235;-67
2022/03/11 02:17:21;;;;;;;2.85;2.65;;;17.10;46.50;;;;;;5050824;28;20278;-67
2022/03/11 02:19:47;;;;;;;2.83;2.63;;;17.10;46.50;;;;;;5051251;28;20659;-67
2022/03/11 02:22:13;;;;;;;2.85;2.65;;;17.10;46.40;;;;;;5050112;28;20175;-67
2022/03/11 02:24:38;;;;;;;2.70;2.50;;;17.10;46.50;;;;;;5049939;28;20214;-67
2022/03/11 02:27:04;;;;;;;2.58;2.38;;;17.10;46.50;;;;;;5051191;28;20171;-67
2022/03/11 02:29:29;;;;;;;2.90;2.70;;;17.10;46.50;;;;;;5050074;28;20175;-68
2022/03/11 02:31:55;;;;;;;2.88;2.60;;;17.10;46.50;;;;;;5051206;28;20684;-67
2022/03/11 02:34:20;;;;;;;3.03;2.83;;;17.10;46.50;;;;;;5049971;28;20180;-65
2022/03/11 02:36:46;;;;;;;2.80;2.53;;;17.10;46.50;;;;;;5050962;28;20533;-65
2022/03/11 02:39:12;;;;;;;2.90;2.60;;;17.10;46.50;;;;;;5050656;28;20178;-66
2022/03/11 02:41:41;;;;;;;3.05;2.85;;;17.10;46.50;;;;;;5050317;28;20172;-66
2022/03/11 02:44:06;;;;;;;3.33;3.00;;;17.00;46.40;;;;;;5050631;28;20228;-66
2022/03/11 02:46:32;;;;;;;3.50;2.80;;;17.00;46.50;;;;;;5050921;28;20199;-67
2022/03/11 02:48:57;;;;;;;2.70;2.35;;;17.10;46.50;;;;;;5050447;28;20242;-67
2022/03/11 02:51:23;;;;;;;3.05;2.75;;;17.00;46.50;;;;;;5050737;28;20182;-66
2022/03/11 02:53:48;;;;;;;4.03;2.63;;;17.00;46.50;;;;;;5054546;28;20167;-66
2022/03/11 02:56:15;;;;;;;2.88;2.67;;;17.00;46.50;;;;;;5053306;28;20607;-66
2022/03/11 02:58:40;;;;;;;3.35;3.05;;;17.00;46.50;;;;;;5054513;28;20167;-66
2022/03/11 03:01:06;;;;;;;2.72;2.53;;;17.00;46.50;;;;;;5054091;28;20489;-67
2022/03/11 03:03:32;;;;;;;2.63;2.42;;;17.00;46.50;;;;;;5053691;28;20198;-65
2022/03/11 03:05:58;;;;;;;2.88;2.67;;;17.00;46.50;;;;;;5054241;28;20179;-67
2022/03/11 03:08:23;;;;;;;3.47;3.05;;;17.00;46.50;;;;;;5053918;28;20189;-66
2022/03/11 03:10:49;;;;;;;2.53;2.33;;;17.00;46.50;;;;;;5053665;28;20198;-67
2022/03/11 03:13:14;;;;;;;2.88;2.67;;;16.90;46.50;;;;;;5053802;28;20245;-66
2022/03/11 03:15:40;;;;;;;3.10;2.60;;;16.90;46.50;;;;;;5054234;28;20178;-68
2022/03/11 03:18:06;;;;;;;2.67;2.47;;;16.90;46.50;;;;;;5053229;28;20338;-67
2022/03/11 03:20:31;;;;;;;3.10;2.90;;;16.90;46.50;;;;;;5053898;28;20282;-67
2022/03/11 03:22:57;;;;;;;2.90;2.60;;;16.90;46.50;;;;;;5054085;28;20648;-67
2022/03/11 03:25:24;;;;;;;3.13;2.83;;;16.90;46.50;;;;;;5052917;28;20223;-67
2022/03/11 03:27:49;;;;;;;2.80;2.60;;;16.90;46.60;;;;;;5054046;28;20213;-67
2022/03/11 03:30:15;;;;;;;3.05;2.75;;;16.90;46.60;;;;;;5053587;28;20211;-68
2022/03/11 03:32:43;;;;;;;2.70;2.50;;;16.90;46.60;;;;;;5052891;28;20172;-66
2022/03/11 03:35:10;;;;;;;3.25;2.63;;;16.90;46.60;;;;;;5051959;28;20244;-66
2022/03/11 03:37:36;;;;;;;2.70;2.50;;;16.90;46.50;;;;;;5053194;28;20179;-66
2022/03/11 03:40:01;;;;;;;2.50;2.30;;;16.80;46.50;;;;;;5053825;28;20236;-67
2022/03/11 03:42:27;;;;;;;3.10;2.83;;;16.90;46.60;;;;;;5053379;28;20186;-66
2022/03/11 03:44:53;;;;;;;2.83;2.63;;;16.80;46.50;;;;;;5052902;28;20317;-67
2022/03/11 03:47:19;;;;;;;2.70;2.50;;;16.80;46.50;;;;;;5053208;28;20172;-67
2022/03/11 03:49:45;;;;;;;2.60;2.40;;;16.80;46.60;;;;;;5053560;28;20274;-66
2022/03/11 03:52:12;;;;;;;2.83;2.60;;;16.80;46.60;;;;;;5052648;28;20592;-67
2022/03/11 03:54:38;;;;;;;4.10;2.83;;;16.80;46.60;;;;;;5053539;28;20187;-66
2022/03/11 03:57:04;;;;;;;2.60;2.40;;;16.80;46.60;;;;;;5053443;28;20206;-65
2022/03/11 03:59:29;;;;;;;3.85;2.50;;;16.80;46.60;;;;;;5052330;28;20718;-66
2022/03/11 04:01:55;;;;;;;2.80;2.50;;;16.80;46.60;;;;;;5053308;28;20603;-66
2022/03/11 04:04:21;;;;;;;2.70;2.50;;;16.80;46.60;;;;;;5051831;28;20211;-66
2022/03/11 04:06:46;;;;;;;2.85;2.65;;;16.70;46.60;;;;;;5052753;28;20220;-66
2022/03/11 04:09:12;;;;;;;3.75;2.70;;;16.70;46.60;;;;;;5053079;28;20175;-66
2022/03/11 04:11:37;;;;;;;3.08;2.75;;;16.70;46.60;;;;;;5053268;28;20167;-66
2022/03/11 04:14:03;;;;;;;2.80;2.60;;;16.70;46.60;;;;;;5052352;28;20270;-67
2022/03/11 04:16:29;;;;;;;2.50;2.30;;;16.70;46.60;;;;;;5052602;28;20175;-68
2022/03/11 04:18:55;;;;;;;3.17;2.88;;;16.70;46.60;;;;;;5052878;28;20265;-66
2022/03/11 04:21:20;;;;;;;2.45;2.20;;;16.70;46.60;;;;;;5052099;28;20190;-66
2022/03/11 04:23:46;;;;;;;2.80;2.60;;;16.70;46.60;;;;;;5052759;28;20210;-66
2022/03/11 04:26:12;;;;;;;2.55;2.35;;;16.70;46.60;;;;;;5052603;28;20183;-67
2022/03/11 04:28:38;;;;;;;2.90;2.70;;;16.70;46.60;;;;;;5051912;28;20229;-67
2022/03/11 04:31:04;;;;;;;2.40;2.20;;;16.70;46.60;;;;;;5052555;28;20666;-66
2022/03/11 04:33:29;;;;;;;2.53;2.33;;;16.70;46.60;;;;;;5052253;28;20175;-66
2022/03/11 04:35:55;;;;;;;3.22;2.40;;;16.70;46.70;;;;;;5052095;28;20240;-66
2022/03/11 04:38:20;;;;;;;2.75;2.55;;;16.60;46.60;;;;;;5052497;28;20167;-66
2022/03/11 04:40:46;;;;;;;2.80;2.42;;;16.60;46.60;;;;;;5052413;28;20218;-67
2022/03/11 04:43:11;;;;;;;3.15;2.85;;;16.60;46.60;;;;;;5051807;28;20524;-67
2022/03/11 04:45:37;;;;;;;2.60;2.40;;;16.60;46.60;;;;;;5052258;28;20210;-67
2022/03/11 04:48:04;;;;;;;2.60;2.40;;;16.60;46.70;;;;;;5051502;28;20199;-67
2022/03/11 04:50:29;;;;;;;2.78;2.28;;;16.60;46.60;;;;;;5050759;28;20198;-67
2022/03/11 04:52:55;;;;;;;2.72;2.53;;;16.60;47.20;;;;;;5052225;28;20175;-66
2022/03/11 04:55:20;;;;;;;2.45;2.25;;;16.60;46.60;;;;;;5050921;28;20593;-65
2022/03/11 04:57:46;;;;;;;2.58;2.38;;;16.60;46.60;;;;;;5052468;28;20167;-65
2022/03/11 05:00:12;;;;;;;2.75;2.47;;;16.60;46.70;;;;;;5051873;28;20175;-65
2022/03/11 05:02:38;;;;;;;2.60;2.22;;;16.60;46.70;;;;;;5051186;28;20179;-65
2022/03/11 05:05:10;;;;;;;2.70;2.50;;;16.60;46.70;;;;;;5051877;28;20224;-66
2022/03/11 05:07:35;;;;;;;2.45;2.25;;;16.60;46.70;;;;;;5052080;28;20253;-66
2022/03/11 05:10:01;;;;;;;2.92;2.63;;;16.60;46.70;;;;;;5051517;28;20654;-67
2022/03/11 05:12:27;;;;;;;2.60;2.40;;;16.50;46.60;;;;;;5051667;28;20190;-66
2022/03/11 05:14:52;;;;;;;2.50;2.30;;;16.50;46.60;;;;;;5051635;28;20179;-66
2022/03/11 05:17:18;;;;;;;2.33;2.20;;;16.60;46.70;;;;;;5050829;28;20531;-67
2022/03/11 05:19:44;;;;;;;2.10;2.00;;;16.50;46.70;;;;;;5052184;28;20179;-67
2022/03/11 05:22:12;;;;;;;2.83;2.63;;;16.50;46.70;;;;;;5051786;28;20175;-68
2022/03/11 05:24:38;;;;;;;2.40;2.20;;;16.50;46.70;;;;;;5051026;28;20340;-67
2022/03/11 05:27:04;;;;;;;2.30;2.20;;;16.50;46.70;;;;;;5051821;28;20275;-67
2022/03/11 05:29:34;;;;;;;2.55;2.35;;;16.50;46.70;;;;;;5051396;28;20175;-67
2022/03/11 05:31:59;;;;;;;2.70;2.50;;;16.50;46.70;;;;;;5051187;28;20274;-67
2022/03/11 05:34:25;;;;;;;2.45;2.25;;;16.50;46.70;;;;;;5051348;28;20689;-66
2022/03/11 05:36:50;;;;;;;2.90;2.65;;;16.50;46.70;;;;;;5051583;28;20290;-66
2022/03/11 05:39:16;;;;;;;3.03;2.72;;;16.50;46.70;;;;;;5050578;28;20208;-66
2022/03/11 05:41:42;;;;;;;2.70;2.50;;;16.50;46.70;;;;;;5051668;28;20270;-66
2022/03/11 05:44:07;;;;;;;3.70;2.72;;;16.50;46.70;;;;;;5050299;28;20207;-66
2022/03/11 05:46:33;;;;;;;2.33;2.13;;;16.50;46.70;;;;;;5051369;28;20190;-67
2022/03/11 05:48:58;;;;;;;3.55;2.40;;;16.40;46.60;;;;;;5051653;28;20171;-66
2022/03/11 05:51:24;;;;;;;2.38;2.20;;;16.40;46.70;;;;;;5050658;28;20176;-67
2022/03/11 05:53:49;;;;;;;3.53;3.03;;;16.40;46.70;;;;;;5051735;28;20178;-65
2022/03/11 05:56:15;;;;;;;3.17;2.60;;;16.40;46.70;;;;;;5050973;28;20214;-66
2022/03/11 05:58:40;;;;;;;3.03;2.40;;;16.40;46.70;;;;;;5050664;28;20626;-65
2022/03/11 06:01:06;;;;;;;2.65;2.45;;;16.40;46.70;;;;;;5051473;28;20179;-65
2022/03/11 06:03:31;;;;;;;2.40;2.20;;;16.40;46.70;;;;;;5051594;28;20175;-65
2022/03/11 06:05:57;;;;;;;2.88;2.65;;;16.40;46.70;;;;;;5050770;28;20210;-65
2022/03/11 06:08:25;;;;;;;2.70;2.50;;;16.40;46.70;;;;;;5051200;28;20313;-66
2022/03/11 06:10:51;;;;;;;2.45;2.25;;;16.40;46.70;;;;;;5051507;28;20175;-66
2022/03/11 06:13:16;;;;;;;2.80;2.60;;;16.40;46.70;;;;;;5050430;28;20198;-66
2022/03/11 06:15:42;;;;;;;2.50;2.30;;;16.40;46.70;;;;;;5051379;28;20630;-66
2022/03/11 06:18:08;;;;;;;2.45;2.25;;;16.30;46.60;;;;;;5051242;28;20168;-66
2022/03/11 06:20:35;;;;;;;2.40;2.20;;;16.30;46.70;;;;;;5050706;28;20167;-66
2022/03/11 06:23:00;;;;;;;2.85;2.55;;;16.40;46.70;;;;;;5051334;28;20182;-67
2022/03/11 06:25:26;;;;;;;3.42;2.80;;;16.30;46.70;;;;;;5050941;28;20713;-66
2022/03/11 06:27:51;;;;;;;2.50;2.30;;;16.30;46.70;;;;;;5052940;28;20500;-67
2022/03/11 06:30:17;;;;;;;2.75;2.47;;;16.30;46.60;;;;;;5054972;28;20183;-67
2022/03/11 06:32:43;;;;;;;2.55;2.30;;;16.30;46.60;;;;;;5055217;28;20179;-65
2022/03/11 06:35:09;;;;;;;2.72;2.53;;;16.30;46.60;;;;;;5054182;28;20191;-66
2022/03/11 06:37:35;;;;;;;2.75;2.55;;;16.30;46.70;;;;;;5055062;28;20183;-65
2022/03/11 06:40:00;;;;;;;2.35;2.15;;;16.30;46.60;;;;;;5055089;28;20598;-66
2022/03/11 06:42:34;;;;;;;2.83;2.63;;;16.30;47.30;;;;;;5053867;28;20179;-66
2022/03/11 06:44:59;;;;;;;2.67;2.47;;;16.30;46.60;;;;;;5054949;28;20219;-67
2022/03/11 06:47:25;;;;;;;2.67;2.40;;;16.30;46.60;;;;;;5054000;28;20676;-67
2022/03/11 06:49:50;;;;;;;2.80;2.60;;;16.30;46.60;;;;;;5054934;28;20195;-66
2022/03/11 06:52:16;;;;;;;3.00;2.80;;;16.30;46.60;;;;;;5054526;28;20183;-66
2022/03/11 06:54:41;;;;;;;2.83;2.63;;;16.30;46.60;;;;;;5053779;28;20179;-66
2022/03/11 06:57:07;;;;;;;2.70;2.50;;;16.30;46.60;;;;;;5054161;28;20548;-65
2022/03/11 06:59:32;;;;;;;2.50;2.30;;;16.30;46.70;;;;;;5054817;28;20209;-66
2022/03/11 07:01:58;;;;;;;2.70;2.50;;;16.30;46.60;;;;;;5054008;28;20269;-67
2022/03/11 07:04:23;;;;;;;2.75;2.55;;;16.40;46.50;;;;;;5054083;28;20214;-65
2022/03/11 07:06:49;;;;;;;4.30;2.72;;;16.40;46.50;;;;;;5054388;28;20187;-67
2022/03/11 07:09:14;;;;;;;3.40;3.00;;;16.50;46.30;;;;;;5053307;28;20183;-68
2022/03/11 07:11:40;;;;;;;2.83;2.63;;;16.50;46.40;;;;;;5054170;28;20178;-68
2022/03/11 07:14:05;;;;;;;3.70;2.65;;;16.60;46.30;;;;;;5054144;28;20170;-71
2022/03/11 07:16:31;;;;;;;2.80;2.50;;;16.60;46.30;;;;;;5052700;28;20233;-69
2022/03/11 07:18:56;;;;;;;3.45;2.92;;;16.70;46.40;;;;;;5054329;28;20265;-67
2022/03/11 07:21:22;;;;;;;3.05;2.60;;;16.70;46.60;;;;;;5053930;28;20171;-69
2022/03/11 07:23:54;;;;;;;3.40;3.10;;;16.70;46.60;;;;;;5053118;28;20541;-68
2022/03/11 07:26:20;;;;;;;3.42;2.50;;;16.70;46.70;;;;;;5053667;28;20634;-69
2022/03/11 07:28:45;;;;;;;3.33;2.83;;;16.70;46.60;;;;;;5054304;28;20178;-69
2022/03/11 07:31:11;;;;;;;3.03;2.80;;;16.80;46.90;;;;;;5053049;28;20194;-70
2022/03/11 07:33:37;;;;;;;3.25;2.95;;;16.80;46.50;;;;;;5054054;28;20175;-70
2022/03/11 07:36:03;;;;;;;3.15;2.80;;;16.80;46.60;;;;;;5054107;28;20207;-69
2022/03/11 07:38:31;;;;;;;2.65;2.45;;;16.90;46.50;;;;;;5052839;28;20189;-69
2022/03/11 07:40:59;;;;;;;2.58;2.38;;;17.00;46.60;;;;;;5053739;28;20199;-69
2022/03/11 07:43:26;;;;;;;6.47;3.03;;;17.10;46.70;;;;;;5053571;28;20199;-70
2022/03/11 07:45:52;;;;;;;4.70;2.88;;;17.30;46.70;;;;;;5053136;28;20206;-70
2022/03/11 07:48:18;;;;;;;3.13;2.78;;;17.40;46.70;;;;;;5053340;28;20200;-69
2022/03/11 07:50:44;;;;;;;5.03;3.13;;;17.60;46.60;;;;;;5053371;28;20183;-70
2022/03/11 07:53:09;;;;;;;4.28;2.33;;;17.80;46.40;;;;;;5053123;28;20745;-69
2022/03/11 07:55:35;;;;;;;4.30;2.92;;;17.90;46.30;;;;;;5053418;28;20621;-69
2022/03/11 07:58:01;;;;;;;5.70;3.10;;;18.10;46.10;;;;;;5052637;28;20183;-68
2022/03/11 08:00:26;;;;;;;3.58;2.78;;;18.20;45.90;;;;;;5052828;28;20183;-67
2022/03/11 08:02:52;;;;;;;4.30;3.03;;;18.30;45.70;;;;;;5053567;28;20182;-67
2022/03/11 08:05:18;;;;;;;3.60;2.60;;;18.40;45.60;;;;;;5052053;28;20580;-70
2022/03/11 08:07:48;;;;;;;6.05;2.95;;;18.50;45.50;;;;;;5053084;28;20229;-70
2022/03/11 08:10:14;;;;;;;5.10;3.17;;;18.60;45.30;;;;;;5052719;28;20254;-69
2022/03/11 08:12:40;;;;;;;5.00;3.40;;;18.70;45.40;;;;;;5052453;28;20262;-69
2022/03/11 08:15:06;;;;;;;4.05;3.10;;;18.70;45.20;;;;;;5052958;28;20478;-69
2022/03/11 08:17:31;;;;;;;4.30;2.40;;;18.80;45.30;;;;;;5053123;28;20203;-69
2022/03/11 08:19:57;;;;;;;4.15;2.85;;;18.80;45.30;;;;;;5052206;28;20646;-69
2022/03/11 08:22:22;;;;;;;4.63;2.92;;;18.80;45.50;;;;;;5052601;28;20225;-68
2022/03/11 08:24:48;;;;;;;4.40;2.78;;;18.80;45.50;;;;;;5052586;28;20221;-67
2022/03/11 08:27:15;;;;;;;7.72;3.10;;;18.80;45.70;;;;;;5051015;28;20182;-68
2022/03/11 08:29:40;;;;;;;5.15;3.13;;;18.80;45.70;;;;;;5052205;28;20623;-67
2022/03/11 08:32:06;;;;;;;6.32;2.83;;;18.80;45.50;;;;;;5052260;28;20171;-67
2022/03/11 08:34:32;;;;;;;5.13;3.03;;;18.90;45.60;;;;;;5051925;28;20179;-65
2022/03/11 08:36:57;;;;;;;5.40;2.70;;;18.80;45.50;;;;;;5052477;28;20233;-65
2022/03/11 08:39:23;;;;;;;5.97;2.90;;;18.80;45.50;;;;;;5052465;28;20187;-65
2022/03/11 08:41:48;;;;;;;4.60;2.92;;;18.80;45.50;;;;;;5051968;28;20217;-65
2022/03/11 08:44:14;;;;;;;4.78;2.78;;;18.80;45.50;;;;;;5052315;28;20268;-66
2022/03/11 08:46:39;;;;;;;6.07;2.58;;;18.70;45.60;;;;;;5052271;28;20201;-65
2022/03/11 08:49:07;;;;;;;4.80;2.92;;;18.70;45.50;;;;;;5051489;28;20590;-66
2022/03/11 08:51:32;;;;;;;4.45;3.03;;;18.70;45.70;;;;;;5052035;28;20289;-66
2022/03/11 08:53:58;;;;;;;4.97;2.78;;;18.70;45.70;;;;;;5051950;28;20179;-66
2022/03/11 08:56:24;;;;;;;5.60;2.85;;;18.60;45.60;;;;;;5051400;28;20222;-67
2022/03/11 08:58:49;;;;;;;2.95;2.67;;;18.60;45.70;;;;;;5052148;28;20592;-66
2022/03/11 09:01:16;;;;;;;3.90;2.75;;;18.60;45.70;;;;;;5050979;28;20266;-65
2022/03/11 09:03:41;;;;;;;4.05;2.65;;;18.60;45.80;;;;;;5052063;28;20203;-65
2022/03/11 09:06:07;;;;;;;3.60;2.50;;;18.60;45.80;;;;;;5051653;28;20211;-66
2022/03/11 09:08:32;;;;;;;3.78;2.90;;;18.50;45.80;;;;;;5051276;28;20580;-67
2022/03/11 09:10:58;;;;;;;4.80;3.20;;;18.50;45.90;;;;;;5052100;28;20630;-66
2022/03/11 09:13:23;;;;;;;3.88;2.90;;;18.50;45.90;;;;;;5051636;28;20277;-66
2022/03/11 09:15:49;;;;;;;4.32;3.22;;;18.50;45.90;;;;;;5051545;28;20178;-65
2022/03/11 09:18:14;;;;;;;2.67;2.42;;;18.50;46.00;;;;;;5051308;28;20186;-66
2022/03/11 09:20:40;;;;;;;3.47;2.90;;;18.50;46.00;;;;;;5051648;28;20551;-66
2022/03/11 09:23:06;;;;;;;3.65;3.00;;;18.50;46.10;;;;;;5051194;28;20179;-66
2022/03/11 09:25:32;;;;;;;5.15;2.78;;;18.40;46.00;;;;;;5051414;28;20206;-65
2022/03/11 09:27:57;;;;;;;3.50;2.60;;;18.50;46.10;;;;;;5051462;28;20183;-66
2022/03/11 09:30:23;;;;;;;4.25;2.80;;;18.50;46.10;;;;;;5050810;28;20630;-66
2022/03/11 09:32:49;;;;;;;4.78;3.03;;;18.50;46.10;;;;;;5051634;28;20182;-66
2022/03/11 09:35:15;;;;;;;3.35;3.00;;;18.50;46.10;;;;;;5051345;28;20183;-65
2022/03/11 09:37:41;;;;;;;4.55;2.95;;;18.50;46.10;;;;;;5049888;28;20175;-65
2022/03/11 09:40:08;;;;;;;5.55;3.03;;;18.50;46.10;;;;;;5051263;28;20250;-65
2022/03/11 09:42:33;;;;;;;3.35;2.97;;;18.50;46.10;;;;;;5051848;28;20179;-66
2022/03/11 09:44:59;;;;;;;4.30;3.00;;;18.50;46.00;;;;;;5051118;28;20703;-66
2022/03/11 09:47:24;;;;;;;3.90;2.97;;;18.50;46.00;;;;;;5051102;28;20288;-65
2022/03/11 09:49:50;;;;;;;3.13;2.78;;;18.50;46.00;;;;;;5051438;28;20244;-66
2022/03/11 09:52:16;;;;;;;3.60;3.00;;;18.50;46.10;;;;;;5049391;28;20283;-66
2022/03/11 09:54:42;;;;;;;5.35;3.05;;;18.50;46.00;;;;;;5051404;28;20185;-66
2022/03/11 09:57:07;;;;;;;3.35;3.05;;;18.60;46.10;;;;;;5051268;28;20239;-65
2022/03/11 09:59:33;;;;;;;2.90;2.55;;;18.50;46.00;;;;;;5050521;28;20486;-65
2022/03/11 10:01:59;;;;;;;3.10;2.80;;;18.60;46.00;;;;;;5052477;28;20182;-65
2022/03/11 10:04:25;;;;;;;4.50;3.08;;;18.60;46.00;;;;;;5054193;28;20211;-66
2022/03/11 10:06:54;;;;;;;3.05;2.75;;;18.60;45.90;;;;;;5055248;28;20174;-65
2022/03/11 10:09:19;;;;;;;4.72;3.30;;;18.60;45.90;;;;;;5055218;28;20179;-65
2022/03/11 10:11:52;;;;;;;3.45;2.70;;;18.60;45.80;;;;;;5054607;28;20171;-66
2022/03/11 10:14:18;;;;;;;3.63;3.15;;;18.60;46.50;;;;;;5055008;28;20175;-66
2022/03/11 10:16:44;;;;;;;3.30;3.00;;;18.70;45.90;;;;;;5037328;28;20171;-66
2022/03/11 10:19:11;;;;;;;3.50;2.92;;;18.60;45.90;;;;;;5054215;28;20267;-66
2022/03/11 10:21:38;;;;;;;3.63;3.30;;;18.60;45.80;;;;;;5053739;28;20214;-66
2022/03/11 10:24:08;;;;;;;4.20;2.95;;;18.70;45.80;;;;;;5055177;28;20226;-65
2022/03/11 10:26:35;;;;;;;3.78;3.38;;;18.70;45.90;;;;;;5054454;28;20187;-67
2022/03/11 10:29:01;;;;;;;4.53;3.42;;;18.70;45.80;;;;;;5055098;28;20179;-66
2022/03/11 10:31:39;;;;;;;3.20;2.83;;;18.60;45.80;;;;;;5054685;28;20178;-66
2022/03/11 10:34:19;;;;;;;3.40;3.10;;;18.70;45.80;;;;;;5054514;28;20179;-65
2022/03/11 10:36:49;;;;;;;4.30;3.25;;;18.70;45.80;;;;;;5054895;28;20271;-66
2022/03/11 10:39:20;;;;;;;3.40;3.00;;;18.70;45.80;;;;;;5054620;28;20240;-65
2022/03/11 10:41:49;;;;;;;3.58;3.20;;;18.70;45.70;;;;;;5054130;28;20190;-65
2022/03/11 10:44:22;;;;;;;5.10;3.78;;;18.70;45.70;;;;;;5054252;28;20323;-66
2022/03/11 10:46:48;;;;;;;4.35;3.28;;;18.70;45.70;;;;;;5052942;28;20175;-66
2022/03/11 10:49:23;;;;;;;3.45;3.15;;;18.70;45.70;;;;;;5053153;28;20203;-66
2022/03/11 10:51:49;;;;;;;4.78;3.70;;;18.80;45.60;;;;;;5054758;28;20274;-66
2022/03/11 10:54:14;;;;;;;4.05;3.72;;;18.80;45.50;;;;;;5052161;28;20262;-65
2022/03/11 10:56:40;;;;;;;3.80;3.50;;;18.80;45.60;;;;;;5052001;28;20245;-65
2022/03/11 10:59:09;;;;;;;4.32;3.50;;;18.80;45.60;;;;;;5053304;28;20178;-65
2022/03/11 11:01:42;;;;;;;3.38;3.08;;;18.80;45.50;;;;;;5051118;28;20658;-64
2022/03/11 11:04:12;;;;;;;5.32;3.80;;;18.90;45.50;;;;;;5052959;28;20218;-65
2022/03/11 11:06:38;;;;;;;3.67;3.33;;;18.80;45.50;;;;;;5053263;28;20278;-65
2022/03/11 11:09:04;;;;;;;4.80;3.53;;;18.80;45.50;;;;;;5052308;28;20689;-65
2022/03/11 11:11:30;;;;;;;3.40;3.10;;;18.90;45.60;;;;;;5052573;28;20179;-66
2022/03/11 11:13:56;;;;;;;4.18;3.30;;;18.80;45.50;;;;;;5052652;28;20587;-65
2022/03/11 11:16:24;;;;;;;3.95;3.58;;;18.90;45.60;;;;;;5052109;28;20198;-67
2022/03/11 11:18:51;;;;;;;3.97;3.58;;;18.90;45.60;;;;;;5053030;28;20178;-67
2022/03/11 11:21:19;;;;;;;3.33;3.03;;;18.90;45.50;;;;;;5052627;28;20637;-65
2022/03/11 11:23:44;;;;;;;3.20;2.85;;;18.90;45.60;;;;;;5051861;28;20192;-66
2022/03/11 11:26:12;;;;;;;3.35;3.05;;;18.90;45.60;;;;;;5034635;28;20749;-67
2022/03/11 11:28:38;;;;;;;3.95;3.55;;;18.90;45.60;;;;;;5051547;28;20175;-68
2022/03/11 11:31:05;;;;;;;3.38;3.08;;;18.90;46.20;;;;;;5050912;28;20171;-68
2022/03/11 11:33:30;;;;;;;4.75;3.92;;;19.00;45.50;;;;;;5034877;28;20210;-68
2022/03/11 11:35:57;;;;;;;5.30;3.88;;;18.90;45.30;;;;;;5051884;28;20201;-68
2022/03/11 11:38:37;;;;;;;3.92;3.33;;;19.00;45.20;;;;;;5052267;28;20198;-68
2022/03/11 11:41:18;;;;;;;5.88;4.93;;;19.00;45.20;;;;;;5052828;28;20183;-68
2022/03/11 11:43:58;;;;;;;6.22;5.63;;;19.00;45.00;;;;;;5051505;28;20608;-68
2022/03/11 11:46:24;;;;;;;7.20;5.38;;;19.00;44.00;;;;;;5052131;28;20186;-68
2022/03/11 11:48:49;;;;;;;6.97;5.85;;;19.00;43.90;;;;;;5052310;28;20193;-68
2022/03/11 11:51:16;;;;;;;7.47;5.88;;;19.00;43.60;;;;;;5051298;28;20175;-68
2022/03/11 11:54:08;;;;;;;8.05;6.18;;;18.90;43.20;;;;;;5052086;28;20521;-67
2022/03/11 11:56:38;;;;;;;9.85;7.55;;;19.00;43.20;;;;;;5018130;28;996953;-67
2022/03/11 11:59:08;;;;;;;11.75;7.63;;;19.00;43.30;;;;;;5052089;28;20633;-66
2022/03/11 12:01:42;;;;;;;10.88;8.00;;;19.00;43.50;;;;;;5052358;28;20186;-67
2022/03/11 12:04:27;;;;;;;10.98;7.47;;;19.00;43.50;;;;;;5052005;28;20682;-65
2022/03/11 12:07:00;;;;;;;13.40;8.52;;;19.10;43.60;;;;;;5052901;28;20267;-66
2022/03/11 12:12:06;;;;;;;13.80;8.52;;;19.10;43.50;;;;;;5052308;28;20613;-67
2022/03/11 12:14:32;;;;;;;9.85;8.18;;;19.20;43.60;;;;;;5053060;28;20194;-67
2022/03/11 12:17:00;;;;;;;12.45;8.40;;;19.10;43.60;;;;;;5052644;28;20183;-67
2022/03/11 12:19:47;;;;;;;14.68;8.05;;;19.10;43.60;;;;;;5051924;28;20703;-66
2022/03/11 12:22:31;;;;;;;10.25;7.97;;;19.10;43.70;;;;;;5051819;28;20729;-68
2022/03/11 12:25:01;;;;;;;12.68;8.18;;;19.20;43.80;;;;;;5032032;28;20230;-69
2022/03/11 12:27:55;;;;;;;13.65;8.48;;;19.10;43.40;;;;;;5032612;28;20176;-68
2022/03/11 12:30:20;;;;;;;10.10;7.72;;;19.20;43.60;;;;;;5032338;28;20183;-69
2022/03/11 12:32:49;;;;;;;12.70;8.38;;;19.20;43.70;;;;;;5032289;28;20171;-68
2022/03/11 12:35:19;;;;;;;10.60;7.57;;;19.20;43.70;;;;;;5031397;28;20215;-66
2022/03/11 12:37:45;;;;;;;11.88;8.07;;;19.20;43.80;;;;;;5030950;28;20233;-66
2022/03/11 12:40:11;;;;;;;9.95;7.55;;;19.20;43.70;;;;;;5031155;28;20259;-67
2022/03/11 12:42:41;;;;;;;13.10;8.38;;;19.20;43.70;;;;;;5042948;28;20269;-68
2022/03/11 12:45:07;;;;;;;11.38;8.57;;;19.20;43.70;;;;;;5051766;28;20211;-67